Time;durP1;ratioP1;P1;durP2;ratioP2;P2;SDS_P1;SDS_P2;PMS_P1;PMS_P2;Temp;Humidity;BMP_temperature;BMP_pressure;BME280_temperature;BME280_humidity;BME280_pressure;Samples;Min_cycle;Max_cycle;Signal;HPM_P1;HPM_P2
2022/05/02 00:01:57;;;;;;;0.00;0.00;;;;;;;5.85;77.87;102135.66;10538536;28;20044;-76
2022/05/02 00:06:59;;;;;;;0.00;0.00;;;;;;;6.03;77.37;102136.91;10480372;28;20472;-76
2022/05/02 00:12:01;;;;;;;0.00;0.00;;;;;;;6.10;76.07;102129.63;10479620;28;20036;-77
2022/05/02 00:17:04;;;;;;;0.00;0.00;;;;;;;6.20;75.25;102124.31;10497137;28;20492;-76
2022/05/02 00:22:05;;;;;;;0.00;0.00;;;;;;;6.10;74.91;102129.63;10533220;28;20048;-76
2022/05/02 00:27:07;;;;;;;0.00;0.00;;;;;;;6.00;77.42;102117.91;10538740;28;20495;-77
2022/05/02 00:32:09;;;;;;;0.00;0.00;;;;;;;4.64;80.43;102122.53;10537023;28;20044;-77
2022/05/02 00:37:11;;;;;;;0.00;0.00;;;;;;;5.69;77.78;102108.22;10541374;28;20433;-76
2022/05/02 00:42:12;;;;;;;0.00;0.00;;;;;;;4.89;80.33;102108.88;10545312;28;20459;-76
2022/05/02 00:47:15;;;;;;;0.00;0.00;;;;;;;4.71;78.61;102113.63;10547078;28;20040;-75
2022/05/02 00:52:19;;;;;;;0.00;0.00;;;;;;;5.19;77.63;102104.09;10544706;28;20044;-78
2022/05/02 00:57:20;;;;;;;0.00;0.00;;;;;;;5.49;78.23;102109.47;10546469;28;20089;-77
2022/05/02 01:02:22;;;;;;;0.00;0.00;;;;;;;5.13;77.80;102099.47;10528306;28;20040;-77
2022/05/02 01:07:24;;;;;;;0.22;0.22;;;;;;;5.20;77.68;102096.53;10546177;28;20437;-77
2022/05/02 01:12:26;;;;;;;0.00;0.00;;;;;;;5.08;77.06;102099.16;10544137;28;20079;-77
2022/05/02 01:17:31;;;;;;;0.00;0.00;;;;;;;5.04;77.48;102104.81;10544555;28;20044;-77
2022/05/02 01:22:33;;;;;;;0.88;0.88;;;;;;;5.21;77.72;102094.88;10544312;28;20051;-77
2022/05/02 01:27:34;;;;;;;0.00;0.00;;;;;;;5.00;78.30;102102.88;10544932;28;20048;-77
2022/05/02 01:32:35;;;;;;;0.00;0.00;;;;;;;5.51;77.53;102098.56;10559129;28;20097;-77
2022/05/02 01:37:37;;;;;;;0.10;0.10;;;;;;;5.43;77.33;102098.84;10544138;28;20461;-77
2022/05/02 01:42:44;;;;;;;0.00;0.00;;;;;;;5.04;78.20;102099.72;10543888;28;20044;-77
2022/05/02 01:47:45;;;;;;;0.00;0.00;;;;;;;5.51;77.14;102096.00;10543647;28;20048;-82
2022/05/02 01:52:47;;;;;;;0.00;0.00;;;;;;;5.47;75.19;102085.50;10543506;28;20067;-81
2022/05/02 01:57:49;;;;;;;0.00;0.00;;;;;;;5.02;77.77;102096.19;10544070;28;20040;-81
2022/05/02 02:02:50;;;;;;;0.00;0.00;;;;;;;5.11;78.01;102089.91;10515315;28;20033;-81
2022/05/02 02:07:52;;;;;;;0.00;0.00;;;;;;;5.22;76.95;102088.97;10500216;28;20044;-81
2022/05/02 02:12:54;;;;;;;0.00;0.00;;;;;;;5.32;77.97;102090.47;10501057;28;20041;-81
2022/05/02 02:17:55;;;;;;;0.00;0.00;;;;;;;5.43;76.50;102086.06;10499766;28;20135;-81
2022/05/02 02:22:57;;;;;;;0.00;0.00;;;;;;;5.36;75.00;102080.56;10504358;28;20438;-82
2022/05/02 02:28:00;;;;;;;0.00;0.00;;;;;;;4.82;77.95;102074.41;10498847;28;20242;-81
2022/05/02 02:33:02;;;;;;;0.00;0.00;;;;;;;4.80;78.75;102069.97;10499837;28;20044;-81
2022/05/02 02:38:04;;;;;;;0.00;0.00;;;;;;;4.95;77.23;102078.69;10498668;28;20048;-82
2022/05/02 02:43:07;;;;;;;0.00;0.00;;;;;;;5.33;76.09;102066.69;10498230;28;20106;-81
2022/05/02 02:48:08;;;;;;;0.00;0.00;;;;;;;5.20;76.37;102064.97;10499367;28;20098;-82
2022/05/02 02:53:10;;;;;;;0.00;0.00;;;;;;;5.23;75.01;102065.19;10520395;28;20044;-82
2022/05/02 02:58:11;;;;;;;0.00;0.00;;;;;;;5.26;76.04;102060.28;10540855;28;20040;-81
2022/05/02 03:03:13;;;;;;;0.00;0.00;;;;;;;5.35;75.89;102054.91;10540247;28;20044;-81
2022/05/02 03:08:15;;;;;;;0.00;0.00;;;;;;;5.31;75.87;102048.72;10539969;28;20044;-81
2022/05/02 03:13:16;;;;;;;0.00;0.00;;;;;;;5.20;75.86;102052.22;10556629;28;20036;-81
2022/05/02 03:18:21;;;;;;;0.00;0.00;;;;;;;5.29;76.64;102044.28;10539656;28;20048;-81
2022/05/02 03:23:23;;;;;;;0.00;0.00;;;;;;;5.15;77.33;102040.81;10521887;28;20044;-81
2022/05/02 03:28:25;;;;;;;0.00;0.00;;;;;;;4.78;78.97;102033.25;10539313;28;20075;-81
2022/05/02 03:33:26;;;;;;;0.00;0.00;;;;;;;4.98;77.55;102040.56;10539143;28;20089;-81
2022/05/02 03:38:28;;;;;;;0.00;0.00;;;;;;;5.08;76.20;102039.50;10539208;28;20150;-82
2022/05/02 03:44:07;;;;;;;0.00;0.00;;;;;;;4.22;78.58;102044.72;10538233;28;20056;-81
2022/05/02 03:49:08;;;;;;;0.10;0.10;;;;;;;3.89;81.29;102033.94;10538429;28;20097;-82
2022/05/02 03:54:10;;;;;;;0.00;0.00;;;;;;;3.93;80.59;102038.47;10538825;28;20087;-81
2022/05/02 03:59:11;;;;;;;0.00;0.00;;;;;;;4.10;80.86;102040.56;10537974;28;20126;-82
2022/05/02 04:04:13;;;;;;;0.00;0.00;;;;;;;4.40;80.22;102040.03;10520532;28;20105;-81
2022/05/02 04:09:15;;;;;;;1.55;1.45;;;;;;;4.67;78.51;102040.16;10539112;28;20398;-81
2022/05/02 04:14:16;;;;;;;0.00;0.00;;;;;;;3.91;79.74;102042.59;10539343;28;20067;-82
2022/05/02 04:19:19;;;;;;;0.10;0.10;;;;;;;3.95;80.20;102034.38;10544892;28;20144;-81
2022/05/02 04:24:20;;;;;;;0.00;0.00;;;;;;;4.20;78.60;102042.09;10546577;28;20048;-82
2022/05/02 04:29:22;;;;;;;0.00;0.00;;;;;;;4.24;78.50;102040.63;10529548;28;20040;-81
2022/05/02 04:34:23;;;;;;;0.00;0.00;;;;;;;3.82;78.99;102047.91;10546968;28;20075;-81
2022/05/02 04:39:25;;;;;;;0.00;0.00;;;;;;;3.83;80.47;102043.72;10545836;28;20040;-81
2022/05/02 04:44:26;;;;;;;0.00;0.00;;;;;;;3.83;80.08;102043.72;10546251;28;20047;-82
2022/05/02 04:49:28;;;;;;;0.00;0.00;;;;;;;4.47;79.76;102041.34;10544359;28;20052;-81
2022/05/02 04:54:30;;;;;;;0.20;0.20;;;;;;;4.71;79.33;102043.03;10543201;28;20097;-76
2022/05/02 04:59:31;;;;;;;0.00;0.00;;;;;;;5.17;77.02;102045.22;10545669;28;20523;-76
2022/05/02 05:04:33;;;;;;;0.00;0.00;;;;;;;5.29;76.38;102045.16;10542440;28;20048;-76
2022/05/02 05:09:36;;;;;;;0.00;0.00;;;;;;;5.52;75.78;102038.97;10545553;28;20400;-75
2022/05/02 05:20:13;;;;;;;0.00;0.00;;;;;;;6.08;75.85;102041.63;10545741;28;20109;-76
2022/05/02 05:25:15;;;;;;;0.00;0.00;;;;;;;6.45;75.97;102046.47;10526370;28;20097;-75
2022/05/02 05:30:22;;;;;;;0.00;0.00;;;;;;;6.30;77.96;102043.88;10540227;28;20101;-76
2022/05/02 05:35:40;;;;;;;0.00;0.00;;;;;;;6.47;77.63;102039.78;10537538;28;20047;-76
2022/05/02 05:40:42;;;;;;;0.00;0.00;;;;;;;6.88;77.81;102041.41;10568701;28;20047;-76
2022/05/02 05:45:53;;;;;;;0.20;0.20;;;;;;;7.24;76.57;102044.34;10554512;28;20071;-76
2022/05/02 05:51:21;;;;;;;0.00;0.00;;;;;;;7.61;75.82;102042.97;10544300;28;20116;-75
2022/05/02 05:56:32;;;;;;;0.10;0.10;;;;;;;7.80;74.13;102054.28;10483644;28;20510;-75
2022/05/02 06:01:49;;;;;;;0.00;0.00;;;;;;;8.28;73.72;102051.75;10500436;28;20059;-75
2022/05/02 06:06:53;;;;;;;0.00;0.00;;;;;;;8.65;73.50;102046.03;10484551;28;20090;-76
2022/05/02 06:11:57;;;;;;;0.50;0.50;;;;;;;8.58;71.87;102049.94;10500512;28;20545;-75
2022/05/02 06:22:22;;;;;;;0.55;0.50;;;;;;;9.07;69.98;102051.59;10534712;28;20048;-76
2022/05/02 06:27:25;;;;;;;1.45;1.35;;;;;;;9.51;70.06;102045.19;10537503;28;20044;-75
2022/05/02 06:32:29;;;;;;;1.55;0.38;;;;;;;9.56;68.28;102042.84;10537242;28;20063;-76
2022/05/02 06:37:40;;;;;;;0.60;0.60;;;;;;;9.95;67.19;102039.50;10537037;28;20044;-76
2022/05/02 06:42:50;;;;;;;2.47;1.63;;;;;;;10.04;66.09;102036.50;10535716;28;20048;-75
2022/05/02 06:48:10;;;;;;;1.10;0.73;;;;;;;10.60;65.85;102042.50;10537015;28;20445;-75
2022/05/02 06:53:46;;;;;;;1.73;1.33;;;;;;;10.84;64.71;102037.53;10535970;28;20048;-75
2022/05/02 06:59:14;;;;;;;1.40;1.30;;;;;;;11.42;63.35;102021.00;10549654;28;20403;-76
2022/05/02 07:04:22;;;;;;;3.33;2.05;;;;;;;11.86;61.58;102025.28;10527061;28;20052;-75
2022/05/02 07:09:40;;;;;;;0.00;0.00;;;;;;;12.12;61.86;102017.66;10559983;28;20088;-76
2022/05/02 07:15:17;;;;;;;2.05;0.47;;;;;;;12.28;60.23;102020.00;10551876;28;20548;-76
2022/05/02 07:20:46;;;;;;;0.00;0.00;;;;;;;13.41;58.05;102012.66;10536257;28;20499;-77
2022/05/02 07:25:53;;;;;;;0.00;0.00;;;;;;;14.52;53.49;102021.13;10513981;28;20093;-77
2022/05/02 07:31:01;;;;;;;0.10;0.10;;;;;;;13.85;51.73;102020.94;10544764;28;20400;-77
2022/05/02 07:36:04;;;;;;;0.00;0.00;;;;;;;15.03;49.55;102019.00;10544289;28;20040;-77
2022/05/02 07:41:23;;;;;;;0.00;0.00;;;;;;;14.71;50.04;102016.44;10516798;28;20040;-77
2022/05/02 07:46:28;;;;;;;0.63;0.32;;;;;;;14.69;49.39;102025.94;10578024;28;20039;-76
2022/05/02 07:51:31;;;;;;;0.00;0.00;;;;;;;16.12;49.02;102014.59;10558773;28;20058;-77
2022/05/02 07:56:35;;;;;;;1.75;1.00;;;;;;;15.41;46.19;102015.63;10552249;28;20052;-78
2022/05/02 08:01:38;;;;;;;0.00;0.00;;;;;;;16.43;46.53;102008.28;10522245;28;20054;-77
2022/05/02 08:06:46;;;;;;;3.17;1.48;;;;;;;15.17;45.67;102017.63;10534812;28;20581;-77
2022/05/02 08:12:30;;;;;;;4.63;2.13;;;;;;;15.18;48.02;102013.34;10534573;28;20113;-79
2022/05/02 08:18:10;;;;;;;3.28;1.10;;;;;;;16.16;45.97;102014.69;10516729;28;20056;-77
2022/05/02 08:29:01;;;;;;;5.38;1.27;;;;;;;15.70;42.99;102019.75;10499448;28;20498;-80
2022/05/02 08:34:42;;;;;;;1.25;0.35;;;;;;;16.38;46.19;101998.66;10514440;28;20068;-80
2022/05/02 08:40:08;;;;;;;0.50;0.40;;;;;;;16.97;41.46;101995.41;10518213;28;20052;-79
2022/05/02 08:45:24;;;;;;;0.00;0.00;;;;;;;17.24;40.77;102000.19;10531992;28;20070;-80
2022/05/02 08:50:29;;;;;;;0.95;0.85;;;;;;;18.02;41.06;102002.19;10531060;28;20060;-78
2022/05/02 08:56:01;;;;;;;0.10;0.10;;;;;;;17.31;41.38;102001.19;10531795;28;20097;-79
2022/05/02 09:01:27;;;;;;;1.67;0.65;;;;;;;17.29;41.01;101997.66;10538933;28;20132;-80
2022/05/02 09:07:04;;;;;;;0.35;0.35;;;;;;;19.78;37.16;101981.97;10532827;28;20071;-77
2022/05/02 09:12:20;;;;;;;5.65;2.97;;;;;;;16.77;39.79;101998.53;10506640;28;20056;-82
2022/05/02 09:17:52;;;;;;;2.80;1.88;;;;;;;17.39;40.40;101983.91;10539357;28;20205;-81
2022/05/02 09:23:34;;;;;;;1.08;0.57;;;;;;;17.62;41.75;101998.13;10520775;28;20410;-81
2022/05/02 09:28:44;;;;;;;2.53;0.85;;;;;;;17.41;40.21;101991.78;10510243;28;20062;-78
2022/05/02 09:34:03;;;;;;;0.00;0.00;;;;;;;18.07;37.78;101987.47;10538120;28;20074;-80
2022/05/02 09:39:16;;;;;;;4.13;2.38;;;;;;;17.39;41.22;101978.69;10538743;28;20050;-80
2022/05/02 09:50:34;;;;;;;0.00;0.00;;;;;;;19.35;37.33;101971.28;10552873;28;20055;-79
2022/05/02 10:01:26;;;;;;;0.47;0.32;;;;;;;20.19;33.81;101967.31;10536780;28;20101;-80
2022/05/02 10:06:40;;;;;;;0.93;0.85;;;;;;;19.77;35.93;101959.28;10532649;28;20546;-79
2022/05/02 10:12:10;;;;;;;0.30;0.30;;;;;;;19.03;36.94;101954.50;10536552;28;20055;-80
2022/05/02 10:17:14;;;;;;;3.88;1.15;;;;;;;17.89;38.02;101963.75;10536986;28;20072;-80
2022/05/02 10:23:02;;;;;;;1.38;0.73;;;;;;;19.47;38.43;101947.81;10535642;28;20043;-78
2022/05/02 10:28:08;;;;;;;0.25;0.25;;;;;;;19.29;38.27;101956.44;10515307;28;20091;-80
2022/05/02 10:33:15;;;;;;;0.55;0.55;;;;;;;18.37;36.58;101951.28;10496449;28;20036;-81
2022/05/02 10:38:25;;;;;;;0.00;0.00;;;;;;;21.37;34.18;101930.69;10536140;28;20391;-80
2022/05/02 10:43:30;;;;;;;0.00;0.00;;;;;;;19.71;36.83;101937.47;10531089;28;20056;-79
2022/05/02 10:48:44;;;;;;;0.45;0.20;;;;;;;19.90;34.63;101933.22;10517602;28;20202;-80
2022/05/02 10:53:57;;;;;;;1.85;1.75;;;;;;;19.00;37.19;101923.16;10534903;28;20040;-80
2022/05/02 10:59:04;;;;;;;0.43;0.43;;;;;;;18.47;39.63;101929.63;10535906;28;20044;-80
2022/05/02 11:04:49;;;;;;;1.55;0.85;;;;;;;18.75;37.73;101916.84;10516563;28;20044;-80
2022/05/02 11:10:01;;;;;;;2.22;1.67;;;;;;;18.71;36.86;101908.09;10509196;28;20048;-80
2022/05/02 11:15:06;;;;;;;0.10;0.10;;;;;;;18.81;35.42;101910.78;10534226;28;20076;-81
2022/05/02 11:25:48;;;;;;;1.52;1.42;;;;;;;18.77;37.45;101899.44;10529347;28;20445;-82
2022/05/02 11:31:01;;;;;;;0.28;0.20;;;;;;;19.41;35.49;101899.88;10533991;28;20040;-82
2022/05/02 11:36:08;;;;;;;0.20;0.20;;;;;;;21.26;33.35;101893.16;10531775;28;20525;-81
2022/05/02 11:41:15;;;;;;;8.50;1.88;;;;;;;21.30;33.78;101890.50;10534966;28;20077;-82
2022/05/02 11:46:24;;;;;;;0.38;0.38;;;;;;;21.00;38.10;101888.84;10534413;28;20101;-81
2022/05/02 11:51:29;;;;;;;0.40;0.40;;;;;;;21.32;33.92;101886.16;10501151;28;20044;-81
2022/05/02 11:56:48;;;;;;;0.00;0.00;;;;;;;20.01;37.65;101883.56;10533013;28;20306;-82
2022/05/02 12:02:03;;;;;;;0.13;0.13;;;;;;;20.33;35.46;101885.34;10515567;28;20071;-82
2022/05/02 12:07:13;;;;;;;0.45;0.45;;;;;;;20.52;33.16;101876.63;10532982;28;20483;-81
2022/05/02 12:12:15;;;;;;;0.00;0.00;;;;;;;21.17;34.04;101876.59;10532651;28;20040;-81
2022/05/02 12:17:17;;;;;;;0.15;0.15;;;;;;;19.85;34.11;101878.28;10533396;28;20048;-81
2022/05/02 12:22:26;;;;;;;2.78;1.58;;;;;;;19.15;34.54;101874.50;10514474;28;20580;-82
2022/05/02 12:27:31;;;;;;;2.47;1.42;;;;;;;18.64;35.69;101867.16;10531856;28;20505;-82
2022/05/02 12:32:36;;;;;;;0.10;0.10;;;;;;;18.95;34.82;101862.16;10529163;28;20071;-83
2022/05/02 12:37:42;;;;;;;0.00;0.00;;;;;;;20.00;33.99;101850.41;10539258;28;20044;-82
2022/05/02 12:42:53;;;;;;;0.22;0.20;;;;;;;19.72;33.67;101850.31;10539283;28;20105;-83
2022/05/02 12:48:14;;;;;;;0.10;0.10;;;;;;;20.70;35.31;101843.47;10519887;28;20507;-81
2022/05/02 13:04:30;;;;;;;0.00;0.00;;;;;;;21.43;34.37;101846.78;10576852;28;20044;-81
2022/05/02 13:09:37;;;;;;;0.10;0.10;;;;;;;19.96;34.33;101842.59;10575053;28;20051;-81
2022/05/02 13:14:42;;;;;;;0.15;0.15;;;;;;;20.29;33.45;101826.91;10574571;28;20135;-81
2022/05/02 13:19:47;;;;;;;0.00;0.00;;;;;;;21.13;33.14;101821.56;10533148;28;20048;-82
2022/05/02 13:24:52;;;;;;;0.03;0.00;;;;;;;20.42;36.82;101817.31;10538270;28;20044;-82
2022/05/02 13:29:58;;;;;;;0.00;0.00;;;;;;;20.22;32.84;101815.56;10547543;28;20139;-81
2022/05/02 13:35:05;;;;;;;0.00;0.00;;;;;;;21.14;32.97;101811.09;10567257;28;20540;-80
2022/05/02 13:40:16;;;;;;;1.00;0.52;;;;;;;18.93;34.19;101811.69;10566294;28;20044;-82
2022/05/02 13:45:29;;;;;;;1.95;0.93;;;;;;;18.81;36.61;101806.34;10547356;28;20039;-81
2022/05/02 13:50:39;;;;;;;0.57;0.50;;;;;;;18.84;35.84;101798.53;10561969;28;20478;-74
2022/05/02 13:55:49;;;;;;;0.57;0.47;;;;;;;18.73;36.03;101793.25;10525257;28;20040;-74
2022/05/02 14:01:29;;;;;;;4.65;4.38;;;;;;;19.25;35.99;101792.66;10555395;28;20048;-74
2022/05/02 14:11:56;;;;;;;0.00;0.00;;;;;;;19.83;35.45;101778.03;10567664;28;20040;-73
2022/05/02 14:16:59;;;;;;;0.00;0.00;;;;;;;19.85;37.88;101776.31;10556111;28;20101;-73
2022/05/02 14:22:01;;;;;;;0.75;0.60;;;;;;;20.13;37.21;101773.72;10556844;28;20036;-76
2022/05/02 14:27:03;;;;;;;0.00;0.00;;;;;;;19.87;37.20;101769.34;10546223;28;20043;-76
2022/05/02 14:32:07;;;;;;;0.00;0.00;;;;;;;20.24;35.77;101776.34;10562607;28;20148;-77
2022/05/02 14:37:10;;;;;;;0.00;0.00;;;;;;;19.08;35.75;101774.31;10550089;28;20387;-77
2022/05/02 14:42:12;;;;;;;0.15;0.10;;;;;;;18.33;35.81;101772.09;10549076;28;20039;-77
2022/05/02 14:47:16;;;;;;;0.00;0.00;;;;;;;19.22;35.89;101768.28;10550044;28;20039;-76
2022/05/02 14:52:20;;;;;;;0.00;0.00;;;;;;;18.83;35.00;101762.84;10556131;28;20039;-78
2022/05/02 14:57:23;;;;;;;0.25;0.25;;;;;;;19.11;34.64;101757.78;10537044;28;20048;-77
2022/05/02 15:02:28;;;;;;;0.00;0.00;;;;;;;19.37;34.98;101760.50;10558713;28;20043;-76
2022/05/02 15:07:54;;;;;;;0.20;0.20;;;;;;;19.20;36.57;101757.81;10557076;28;20032;-76
2022/05/02 15:13:24;;;;;;;0.05;0.05;;;;;;;18.32;35.65;101755.59;10554761;28;20402;-76
2022/05/02 15:25:07;;;;;;;1.08;0.30;;;;;;;18.31;35.42;101751.22;10537271;28;20575;-77
2022/05/02 15:40:56;;;;;;;0.00;0.00;;;;;;;18.09;35.76;101726.72;10561575;28;20483;-82
2022/05/02 15:46:11;;;;;;;0.00;0.00;;;;;;;18.56;34.85;101725.31;10561712;28;20047;-76
2022/05/02 15:51:16;;;;;;;0.10;0.10;;;;;;;18.08;38.06;101730.19;10561455;28;20054;-76
2022/05/02 15:56:19;;;;;;;0.40;0.40;;;;;;;17.84;36.91;101725.59;10557466;28;20125;-76
2022/05/02 16:01:35;;;;;;;2.33;1.42;;;;;;;18.20;35.91;101713.78;10556846;28;20513;-75
2022/05/02 16:12:31;;;;;;;0.20;0.10;;;;;;;17.98;36.81;101716.22;10523282;28;20443;-76
2022/05/02 16:17:34;;;;;;;1.05;0.70;;;;;;;17.63;35.79;101710.66;10562629;28;20048;-75
2022/05/02 16:22:41;;;;;;;0.00;0.00;;;;;;;17.65;35.64;101719.38;10553288;28;20565;-74
2022/05/02 16:27:45;;;;;;;0.17;0.00;;;;;;;18.22;34.49;101707.69;10562116;28;20573;-74
2022/05/02 16:32:46;;;;;;;3.40;2.05;;;;;;;17.91;35.23;101709.16;10570352;28;20047;-76
2022/05/02 16:37:55;;;;;;;2.03;1.48;;;;;;;17.98;35.63;101702.28;10562013;28;20048;-76
2022/05/02 16:43:02;;;;;;;1.38;1.17;;;;;;;17.90;35.92;101702.22;10568353;28;20044;-75
2022/05/02 16:48:11;;;;;;;0.00;0.00;;;;;;;18.36;37.29;101694.72;10546849;28;20432;-74
2022/05/02 16:53:13;;;;;;;0.28;0.22;;;;;;;18.04;37.23;101697.13;10570465;28;20075;-75
2022/05/02 16:58:21;;;;;;;0.55;0.55;;;;;;;17.92;37.19;101695.25;10558496;28;20048;-74
2022/05/02 17:03:31;;;;;;;1.27;0.52;;;;;;;17.95;36.66;101697.94;10546326;28;20499;-75
2022/05/02 17:08:36;;;;;;;0.20;0.20;;;;;;;18.03;36.69;101701.47;10529649;28;20044;-74
2022/05/02 17:13:39;;;;;;;0.65;0.63;;;;;;;17.72;37.95;101701.19;10547585;28;20105;-75
2022/05/02 17:18:56;;;;;;;2.65;1.35;;;;;;;17.48;38.10;101708.75;10545574;28;20097;-77
2022/05/02 17:23:59;;;;;;;0.22;0.22;;;;;;;17.42;38.14;101718.25;10525114;28;20044;-75
2022/05/02 17:29:03;;;;;;;7.65;2.03;;;;;;;17.15;37.55;101717.97;10541172;28;20032;-77
2022/05/02 17:34:09;;;;;;;1.08;0.70;;;;;;;17.22;39.74;101714.56;10541592;28;20048;-74
2022/05/02 17:39:19;;;;;;;0.70;0.35;;;;;;;17.06;38.90;101711.78;10541041;28;20097;-81
2022/05/02 17:44:22;;;;;;;;;;;;;;;16.85;39.36;101717.56;10521748;28;20686;-80
2022/05/02 17:49:25;;;;;;;0.90;0.43;;;;;;;16.85;38.41;101724.50;10538648;28;19970;-80
2022/05/02 17:54:28;;;;;;;0.28;0.28;;;;;;;16.65;39.85;101728.59;10537877;28;20075;-79
2022/05/02 17:59:30;;;;;;;2.90;1.38;;;;;;;16.36;40.59;101728.16;10539021;28;20506;-79
2022/05/02 18:04:33;;;;;;;2.92;0.93;;;;;;;16.10;42.11;101728.63;10535436;28;20097;-80
2022/05/02 18:09:35;;;;;;;1.05;0.55;;;;;;;16.08;40.98;101727.72;10544030;28;20383;-78
2022/05/02 18:14:37;;;;;;;0.20;0.20;;;;;;;15.74;42.92;101731.44;10577090;28;20043;-79
2022/05/02 18:19:56;;;;;;;0.00;0.00;;;;;;;15.70;42.99;101734.00;10572936;28;20100;-79
2022/05/02 18:25:00;;;;;;;0.60;0.60;;;;;;;15.43;43.68;101743.84;10561217;28;20051;-80
2022/05/02 18:30:03;;;;;;;0.00;0.00;;;;;;;15.17;45.49;101747.69;10569472;28;20051;-80
2022/05/02 18:40:29;;;;;;;0.00;0.00;;;;;;;14.92;45.99;101754.09;10571045;28;20044;-80
2022/05/02 18:56:17;;;;;;;;;;;;;;;14.23;47.88;101764.59;10549110;28;20071;-80
2022/05/02 19:01:20;;;;;;;0.00;0.00;;;;;;;14.14;48.03;101766.94;10534841;28;19924;-80
2022/05/02 19:06:24;;;;;;;0.10;0.10;;;;;;;13.85;49.01;101767.09;10535088;28;20405;-79
2022/05/02 19:11:26;;;;;;;0.17;0.17;;;;;;;13.90;48.69;101778.44;10534585;28;20257;-79
2022/05/02 19:16:36;;;;;;;0.00;0.00;;;;;;;13.72;49.70;101788.31;10535214;28;20059;-79
2022/05/02 19:22:16;;;;;;;0.10;0.10;;;;;;;13.51;50.83;101799.84;10534633;28;20048;-80
2022/05/02 19:27:19;;;;;;;0.10;0.10;;;;;;;12.76;52.98;101803.63;10526958;28;20040;-79
2022/05/02 19:32:24;;;;;;;0.60;0.60;;;;;;;13.10;52.42;101815.00;10549913;28;20062;-79
2022/05/02 19:42:54;;;;;;;2.20;0.95;;;;;;;13.11;53.81;101822.78;10567135;28;20059;-80
2022/05/02 19:47:55;;;;;;;2.60;1.58;;;;;;;13.12;53.64;101828.88;10568726;28;20410;-80
2022/05/02 19:52:58;;;;;;;0.50;0.50;;;;;;;13.19;53.07;101833.38;10568883;28;20047;-80
2022/05/02 19:58:01;;;;;;;0.43;0.35;;;;;;;13.00;53.62;101835.41;10546743;28;20402;-80
2022/05/02 20:03:05;;;;;;;1.75;0.63;;;;;;;12.86;54.36;101836.69;10559297;28;20047;-80
2022/05/02 20:08:08;;;;;;;2.92;1.70;;;;;;;12.82;54.24;101845.19;10550747;28;20044;-79
2022/05/02 20:13:12;;;;;;;0.98;0.75;;;;;;;12.80;54.55;101846.84;10558878;28;20105;-80
2022/05/02 20:18:15;;;;;;;0.10;0.10;;;;;;;12.42;55.51;101849.03;10531112;28;20726;-80
2022/05/02 20:23:18;;;;;;;0.00;0.00;;;;;;;12.41;56.35;101852.44;10532203;28;20047;-81
2022/05/02 20:28:19;;;;;;;0.43;0.35;;;;;;;12.22;56.49;101851.84;10533307;28;20059;-81
2022/05/02 20:38:42;;;;;;;0.30;0.28;;;;;;;12.00;57.15;101851.09;10533769;28;20048;-79
2022/05/02 20:43:59;;;;;;;0.43;0.43;;;;;;;11.74;58.33;101857.88;10538690;28;20036;-80
2022/05/02 20:49:09;;;;;;;0.00;0.00;;;;;;;11.81;57.94;101858.97;10515463;28;20109;-80
2022/05/02 20:54:11;;;;;;;0.10;0.10;;;;;;;11.61;58.50;101874.63;10535401;28;20044;-81
2022/05/02 20:59:16;;;;;;;0.00;0.00;;;;;;;11.55;57.89;101869.22;10540563;28;20048;-80
2022/05/02 21:04:18;;;;;;;1.27;0.88;;;;;;;11.49;57.43;101875.03;10540029;28;20043;-80
2022/05/02 21:09:19;;;;;;;0.00;0.00;;;;;;;11.34;57.62;101877.91;10540487;28;20507;-81
2022/05/02 21:14:31;;;;;;;0.43;0.43;;;;;;;11.08;58.37;101872.63;10539518;28;20044;-80
2022/05/02 21:19:58;;;;;;;0.00;0.00;;;;;;;11.11;58.14;101875.31;10521703;28;20055;-80
2022/05/02 21:25:27;;;;;;;0.10;0.10;;;;;;;11.11;57.23;101870.16;10520459;28;20063;-81
2022/05/02 21:30:47;;;;;;;1.27;0.32;;;;;;;10.72;58.24;101875.47;10539267;28;20040;-81
2022/05/02 21:35:50;;;;;;;0.00;0.00;;;;;;;10.68;57.44;101878.75;10537236;28;20044;-80
2022/05/02 21:40:53;;;;;;;0.10;0.10;;;;;;;10.73;56.78;101877.25;10548725;28;20415;-80
2022/05/02 21:45:54;;;;;;;0.38;0.20;;;;;;;10.68;56.61;101886.50;10537090;28;20142;-81
2022/05/02 21:50:56;;;;;;;0.30;0.30;;;;;;;10.50;56.92;101899.47;10537117;28;20048;-81
2022/05/02 21:55:58;;;;;;;0.00;0.00;;;;;;;10.31;56.91;101896.09;10537437;28;20048;-80
2022/05/02 22:01:00;;;;;;;0.00;0.00;;;;;;;10.33;56.32;101903.88;10536925;28;20449;-81
2022/05/02 22:06:03;;;;;;;0.00;0.00;;;;;;;10.24;56.57;101893.19;10537266;28;20130;-80
2022/05/02 22:11:05;;;;;;;0.00;0.00;;;;;;;10.18;56.94;101893.81;10537590;28;20048;-80
2022/05/02 22:16:06;;;;;;;0.00;0.00;;;;;;;9.74;58.23;101898.72;10553295;28;20048;-80
2022/05/02 22:21:08;;;;;;;0.00;0.00;;;;;;;9.75;57.84;101894.47;10537138;28;20081;-80
2022/05/02 22:26:09;;;;;;;0.10;0.10;;;;;;;9.52;58.65;101897.75;10536874;28;20321;-80
2022/05/02 22:31:12;;;;;;;0.10;0.10;;;;;;;9.43;58.29;101892.19;10552158;28;20446;-80
2022/05/02 22:36:17;;;;;;;0.00;0.00;;;;;;;8.84;60.08;101904.81;10537547;28;20071;-81
2022/05/02 22:41:18;;;;;;;0.00;0.00;;;;;;;8.80;59.71;101913.19;10536397;28;20071;-81
2022/05/02 22:46:20;;;;;;;0.00;0.00;;;;;;;8.84;59.12;101904.81;10536656;28;20048;-80
2022/05/02 22:51:23;;;;;;;0.00;0.00;;;;;;;8.72;59.38;101909.38;10551509;28;20050;-80
2022/05/02 22:56:24;;;;;;;0.00;0.00;;;;;;;8.65;59.02;101908.16;10536029;28;20051;-80
2022/05/02 23:01:31;;;;;;;0.00;0.00;;;;;;;8.51;60.01;101904.94;10535932;28;20085;-80
2022/05/02 23:06:44;;;;;;;0.00;0.00;;;;;;;7.97;61.87;101908.94;10489133;28;20054;-79
2022/05/02 23:11:48;;;;;;;0.00;0.00;;;;;;;7.85;62.07;101914.31;10546475;28;20458;-81
2022/05/02 23:16:53;;;;;;;0.03;0.03;;;;;;;7.86;62.28;101914.38;10568778;28;20054;-79
2022/05/02 23:21:55;;;;;;;0.00;0.00;;;;;;;7.93;62.64;101903.63;10543610;28;20063;-80
2022/05/02 23:26:58;;;;;;;0.00;0.00;;;;;;;7.83;62.31;101906.53;10569757;28;20036;-80
2022/05/02 23:32:33;;;;;;;0.10;0.10;;;;;;;7.63;62.48;101901.19;10558620;28;20421;-80
2022/05/02 23:38:00;;;;;;;0.00;0.00;;;;;;;7.53;63.37;101898.94;10569738;28;20100;-80
2022/05/02 23:43:07;;;;;;;0.00;0.00;;;;;;;7.49;62.95;101889.31;10569159;28;20043;-80
2022/05/02 23:48:16;;;;;;;0.65;0.40;;;;;;;7.45;62.87;101884.81;10549261;28;20044;-81
2022/05/02 23:53:36;;;;;;;0.73;0.73;;;;;;;7.56;62.33;101893.97;10571986;28;20063;-81
2022/05/02 23:58:38;;;;;;;0.00;0.00;;;;;;;7.51;62.67;101892.84;10563506;28;20040;-80
